M I D A S
Marine Information and Data Acquisition System
Tripno 778 of the Zeeleeuw from 2004-04-20 06:56:50 to 2004-04-20 12:07:06
Back to CruiseResearch ActivitiesStationsMapUnderway DataData graphs

EquipmentUnitsComment
TimeDGPSUTC
LatitudeDGPSDM.mWGS84
LongitudeDGPSDM.mWGS84
HeadingGyrodeg 
SOGDGPSknotsSpeed over ground
COGDGPSdegCourse over ground
DepthEcho soundermeters200 kHz
Missing or incorrect values are displayed as -999
Navigation data collected by the RV Zeeleeuw from 2004-04-20 06:56:50 to 2004-04-20 12:07:06
Time Latitude Longitude Heading SOG COG Depth
2004-04-20 06:57:53 51°13.683 2°55.773 31.5 0.2 313 11.7
2004-04-20 06:58:54 51°13.704 2°55.756 337.1 3.4 329 12.2
2004-04-20 06:59:53 51°13.779 2°55.68 336 6.5 333 7.8
2004-04-20 07:00:57 51°13.895 2°55.597 341.9 6.8 337 8.3
2004-04-20 07:01:57 51°13.989 2°55.538 345.2 5.6 341 9
2004-04-20 07:02:57 51°14.081 2°55.48 340.8 6.4 336 9.1
2004-04-20 07:03:57 51°14.193 2°55.371 328.9 9.7 323 -999
2004-04-20 07:04:57 51°14.318 2°55.163 312.4 11.5 305 9.3
2004-04-20 07:05:57 51°14.414 2°54.875 297.1 13.4 289 8.8
2004-04-20 07:06:57 51°14.399 2°54.512 256.8 14.2 250 8.2
2004-04-20 07:07:57 51°14.295 2°54.182 240.4 13.9 237 5.5
2004-04-20 07:08:57 51°14.18 2°53.862 248.3 13.8 243 7.1
2004-04-20 07:09:57 51°14.069 2°53.535 248.4 14.2 245 7.4
2004-04-20 07:10:56 51°13.968 2°53.201 246.9 14.4 243 7.7
2004-04-20 07:11:57 51°13.877 2°52.837 260.5 14.5 253 8.3
2004-04-20 07:12:57 51°13.758 2°52.496 242.1 14.9 238 8.4
2004-04-20 07:13:57 51°13.636 2°52.152 247.5 14.9 242 8.6
2004-04-20 07:14:57 51°13.506 2°51.816 243.8 15 241 8.6
2004-04-20 07:15:57 51°13.38 2°51.473 242 15 238 8.6
2004-04-20 07:16:57 51°13.255 2°51.129 242.5 15 238 8.8
2004-04-20 07:17:57 51°13.131 2°50.784 247 15 242 8.9
2004-04-20 07:18:57 51°13.004 2°50.441 245.3 15 242 9
2004-04-20 07:19:57 51°12.877 2°50.097 242.7 15.1 239 9.2
2004-04-20 07:20:57 51°12.75 2°49.752 243.7 15.1 239 9.2
2004-04-20 07:21:57 51°12.626 2°49.403 244.2 15.2 239 9.3
2004-04-20 07:22:57 51°12.499 2°49.055 246 15.1 241 9.4
2004-04-20 07:23:57 51°12.371 2°48.71 244.5 15.1 240 9.4
2004-04-20 07:24:57 51°12.251 2°48.359 250.3 15.1 245 9.5
2004-04-20 07:25:57 51°12.144 2°47.996 249.5 15.2 245 9.6
2004-04-20 07:26:57 51°12.038 2°47.63 250.1 15.2 246 9.7
2004-04-20 07:27:57 51°11.933 2°47.263 250.2 15.2 246 9.9
2004-04-20 07:28:57 51°11.828 2°46.896 250.6 15.2 246 10
2004-04-20 07:29:57 51°11.723 2°46.528 249.8 15.2 245 10.2
2004-04-20 07:30:57 51°11.628 2°46.155 253.7 15.2 248 10.2
2004-04-20 07:31:57 51°11.537 2°45.78 253.5 15.2 248 10.2
2004-04-20 07:32:57 51°11.444 2°45.405 253.1 15.2 248 10.1
2004-04-20 07:33:57 51°11.351 2°45.032 252.5 15.1 248 10.1
2004-04-20 07:34:57 51°11.259 2°44.659 252.6 15.1 248 10.1
2004-04-20 07:35:57 51°11.168 2°44.285 253.4 15.1 249 10
2004-04-20 07:36:56 51°11.08 2°43.917 253.8 15.1 249 10
2004-04-20 07:37:57 51°10.988 2°43.537 253.8 15.1 249 9.9
2004-04-20 07:38:57 51°10.899 2°43.165 253.2 15 249 9.9
2004-04-20 07:39:57 51°10.81 2°42.794 253.7 15 250 9.9
2004-04-20 07:40:57 51°10.721 2°42.423 253.4 15 249 9.8
2004-04-20 07:41:57 51°10.632 2°42.053 253 15 249 9.8
2004-04-20 07:42:57 51°10.544 2°41.682 253.6 15 250 9.8
2004-04-20 07:43:57 51°10.454 2°41.312 253.1 15 250 9.8
2004-04-20 07:44:57 51°10.368 2°40.941 253.1 15 249 9.9
2004-04-20 07:45:57 51°10.282 2°40.571 253.7 14.9 250 9.9
2004-04-20 07:46:57 51°10.194 2°40.2 252.9 14.9 249 10
2004-04-20 07:47:57 51°10.109 2°39.831 253.4 14.9 250 10.1
2004-04-20 07:48:57 51°10.022 2°39.46 253.6 14.9 250 10.2
2004-04-20 07:49:57 51°9.935 2°39.088 253.2 15 250 10.7
2004-04-20 07:50:56 51°9.851 2°38.721 253.8 15 250 11
2004-04-20 07:51:57 51°9.762 2°38.341 253.5 15 250 11.6
2004-04-20 07:52:57 51°9.675 2°37.968 253 15 250 11.9
2004-04-20 07:53:56 51°9.589 2°37.6 253.2 15.1 250 12.4
2004-04-20 07:54:57 51°9.5 2°37.219 253.4 15.2 249 13.2
2004-04-20 07:55:57 51°9.417 2°36.84 254.5 15.2 250 13.9
2004-04-20 07:56:57 51°9.331 2°36.576 227.6 7.9 227 14.3
2004-04-20 07:57:57 51°9.249 2°36.48 203.8 5.4 214 13.8
2004-04-20 07:58:57 51°9.206 2°36.4 248.4 2.1 241 13.5
2004-04-20 07:59:57 51°9.195 2°36.37 271.1 1.3 243 -999
2004-04-20 08:00:57 51°9.185 2°36.338 276.6 1.3 246 4.8
2004-04-20 08:01:57 51°9.176 2°36.305 279.1 1.4 248 4.8
2004-04-20 08:02:56 51°9.166 2°36.271 279 1.4 249 13.7
2004-04-20 08:03:57 51°9.158 2°36.234 276.5 1.5 250 13.8
2004-04-20 08:04:57 51°9.15 2°36.196 274.2 1.5 252 13.8
2004-04-20 08:05:57 51°9.142 2°36.158 271.9 1.6 252 14
2004-04-20 08:06:57 51°9.133 2°36.104 273.1 3.3 257 14
2004-04-20 08:07:57 51°9.105 2°36.017 230.4 3.5 236 14.1
2004-04-20 08:08:57 51°9.072 2°35.939 234.9 3.9 237 13.9
2004-04-20 08:09:57 51°9.035 2°35.841 242.1 4.6 241 13.9
2004-04-20 08:10:56 51°9.002 2°35.733 250 4.7 246 14.1
2004-04-20 08:11:57 51°8.974 2°35.625 254.4 4.1 249 14.2
2004-04-20 08:12:57 51°8.952 2°35.53 258.7 3.6 252 14.4
2004-04-20 08:13:57 51°8.933 2°35.442 257.7 3.4 251 14.6
2004-04-20 08:14:57 51°8.914 2°35.36 254.8 3.3 249 14.7
2004-04-20 08:15:56 51°8.893 2°35.282 249.9 3.3 246 14.8
2004-04-20 08:16:57 51°8.869 2°35.202 246.4 3.3 244 14.9
2004-04-20 08:17:57 51°8.844 2°35.125 244 3.3 242 15
2004-04-20 08:18:57 51°8.817 2°35.047 243.1 3.3 241 15.1
2004-04-20 08:19:57 51°8.79 2°34.969 243 3.4 241 15
2004-04-20 08:20:57 51°8.763 2°34.89 244 3.4 242 15.3
2004-04-20 08:21:57 51°8.735 2°34.81 243.8 3.4 241 15.3
2004-04-20 08:22:57 51°8.708 2°34.731 246 3.4 241 15.3
2004-04-20 08:23:57 51°8.681 2°34.651 247.8 3.4 242 15.4
2004-04-20 08:24:56 51°8.655 2°34.573 248.2 3.4 243 15.4
2004-04-20 08:25:57 51°8.628 2°34.493 247.8 3.4 242 15.6
2004-04-20 08:26:57 51°8.602 2°34.414 247.1 3.4 241 15.7
2004-04-20 08:27:57 51°8.575 2°34.336 246.9 3.3 242 15.7
2004-04-20 08:28:57 51°8.549 2°34.259 248.2 3.3 243 15.8
2004-04-20 08:29:57 51°8.524 2°34.18 247.3 3.3 242 15.8
2004-04-20 08:30:57 51°8.496 2°34.103 244.8 3.3 240 15.8
2004-04-20 08:31:57 51°8.468 2°34.028 244 3.3 239 15.7
2004-04-20 08:32:57 51°8.44 2°33.953 243.8 3.3 239 15.7
2004-04-20 08:33:57 51°8.411 2°33.879 243.8 3.3 237 15.7
2004-04-20 08:34:57 51°8.382 2°33.807 245 3.2 238 15.7
2004-04-20 08:35:57 51°8.353 2°33.735 244.5 3.2 237 15.6
2004-04-20 08:36:57 51°8.325 2°33.663 246.6 3.2 239 15.6
2004-04-20 08:37:57 51°8.298 2°33.59 247.4 3.2 240 15.6
2004-04-20 08:38:57 51°8.271 2°33.516 248.5 3.2 240 15.5
2004-04-20 08:39:57 51°8.245 2°33.443 250.4 3.2 242 15.4
2004-04-20 08:40:56 51°8.221 2°33.37 250.7 3.2 241 15.4
2004-04-20 08:41:57 51°8.194 2°33.295 249.4 3.2 241 15.3
2004-04-20 08:42:57 51°8.17 2°33.222 251.4 3.1 242 15.3
2004-04-20 08:43:57 51°8.145 2°33.15 250.7 3.1 242 15.2
2004-04-20 08:44:57 51°8.121 2°33.077 250.8 3.1 242 15.2
2004-04-20 08:45:57 51°8.097 2°33.006 250.2 3.1 241 15.1
2004-04-20 08:46:57 51°8.072 2°32.929 253.9 3.3 245 15.2
2004-04-20 08:47:57 51°8.051 2°32.848 259.7 3.4 249 15.2
2004-04-20 08:48:57 51°8.03 2°32.764 256.8 3.5 247 15.2
2004-04-20 08:49:57 51°8.004 2°32.679 249.5 3.7 241 15.1
2004-04-20 08:50:57 51°7.973 2°32.605 234.8 3 231 14.8
2004-04-20 08:51:57 51°7.941 2°32.551 222.4 2.6 225 14.9
2004-04-20 08:52:57 51°7.911 2°32.507 210.7 2.3 220 14.6
2004-04-20 08:53:57 51°7.856 2°32.5 142.8 4.2 150 13.5
2004-04-20 08:54:56 51°7.84 2°32.574 70.9 2 76 13.1
2004-04-20 08:55:57 51°7.858 2°32.625 57.7 2.3 58 13.3
2004-04-20 08:56:57 51°7.877 2°32.683 64.9 2.5 66 13
2004-04-20 08:57:56 51°7.895 2°32.742 62.9 2.5 63 13.2
2004-04-20 08:58:57 51°7.914 2°32.804 63.8 2.6 64 13.3
2004-04-20 08:59:57 51°7.932 2°32.864 61.9 2.4 61 13.2
2004-04-20 09:00:57 51°7.953 2°32.918 58.1 2.4 57 13
2004-04-20 09:01:57 51°7.975 2°32.971 59.4 2.4 59 13.3
2004-04-20 09:02:57 51°7.995 2°33.028 60.5 2.5 60 13.5
2004-04-20 09:03:57 51°8.016 2°33.085 60 2.5 60 13.5
2004-04-20 09:04:57 51°8.037 2°33.141 59 2.4 58 13.5
2004-04-20 09:05:57 51°8.059 2°33.197 59.7 2.5 58 13.6
2004-04-20 09:06:57 51°8.081 2°33.253 60.2 2.5 58 13.9
2004-04-20 09:07:57 51°8.102 2°33.309 60.6 2.5 59 14.1
2004-04-20 09:08:57 51°8.123 2°33.364 60 2.5 58 14.3
2004-04-20 09:09:57 51°8.145 2°33.419 60 2.4 58 14.3
2004-04-20 09:10:57 51°8.165 2°33.475 61.2 2.4 60 14.4
2004-04-20 09:11:57 51°8.186 2°33.53 59.8 2.4 58 14.6
2004-04-20 09:12:57 51°8.208 2°33.585 61.6 2.4 61 14.6
2004-04-20 09:13:57 51°8.224 2°33.644 67.1 2.5 67 14.4
2004-04-20 09:14:57 51°8.239 2°33.706 66.7 2.5 68 14.1
2004-04-20 09:15:57 51°8.255 2°33.766 64.7 2.5 65 14
2004-04-20 09:16:57 51°8.271 2°33.826 66.7 2.5 67 13.8
2004-04-20 09:17:57 51°8.287 2°33.885 63.7 2.4 63 13.7
2004-04-20 09:18:57 51°8.307 2°33.939 58.9 2.4 56 13.8
2004-04-20 09:19:57 51°8.329 2°33.991 58.7 2.4 55 14.1
2004-04-20 09:20:57 51°8.351 2°34.044 59.5 2.4 56 14.3
2004-04-20 09:21:57 51°8.372 2°34.098 59.5 2.4 58 14.4
2004-04-20 09:22:57 51°8.394 2°34.151 60.2 2.4 58 14.5
2004-04-20 09:23:57 51°8.416 2°34.207 59.5 2.6 56 14.5
2004-04-20 09:24:57 51°8.44 2°34.265 59.6 2.7 57 14.7
2004-04-20 09:25:57 51°8.465 2°34.325 60.2 2.7 57 14.8
2004-04-20 09:26:57 51°8.491 2°34.383 55.1 2.7 50 15
2004-04-20 09:27:57 51°8.521 2°34.436 53.9 2.7 47 15.3
2004-04-20 09:28:57 51°8.549 2°34.49 54.8 2.7 49 15.4
2004-04-20 09:29:57 51°8.58 2°34.547 55.3 2.7 49 15.5
2004-04-20 09:30:57 51°8.609 2°34.598 54.2 2.5 48 15.8
2004-04-20 09:31:57 51°8.636 2°34.647 58 2.4 55 15.9
2004-04-20 09:32:57 51°8.655 2°34.699 63.5 2.3 60 15.9
2004-04-20 09:33:57 51°8.673 2°34.753 62.4 2.3 60 15.9
2004-04-20 09:34:57 51°8.692 2°34.806 60.9 2.4 57 15.8
2004-04-20 09:35:57 51°8.711 2°34.859 61.6 2.4 58 15.9
2004-04-20 09:36:57 51°8.731 2°34.905 57.5 1.7 55 15.8
2004-04-20 09:37:57 51°8.746 2°34.931 49.4 1.1 38 15.9
2004-04-20 09:38:57 51°8.76 2°34.944 43.7 0.8 22 15.9
2004-04-20 09:39:57 51°8.771 2°34.95 39.9 0.6 9 16
2004-04-20 09:40:57 51°8.779 2°34.949 37.5 0.5 350 16.1
2004-04-20 09:41:57 51°8.788 2°34.947 34.9 0.7 353 16.3
2004-04-20 09:42:57 51°8.8 2°34.945 32.6 0.9 357 16.3
2004-04-20 09:43:57 51°8.815 2°34.947 37.1 0.9 11 16.4
2004-04-20 09:44:57 51°8.828 2°34.958 49.3 0.9 38 16.4
2004-04-20 09:45:57 51°8.838 2°34.977 61.9 1 62 16.4
2004-04-20 09:46:57 51°8.845 2°35.004 74.2 1.1 81 16.3
2004-04-20 09:47:57 51°8.842 2°35.037 88.2 1.3 106 16.3
2004-04-20 09:48:57 51°8.832 2°35.072 101.3 1.6 123 16.4
2004-04-20 09:49:57 51°8.812 2°35.106 115.2 1.8 138 16.1
2004-04-20 09:50:57 51°8.786 2°35.135 127.5 1.9 151 15.5
2004-04-20 09:51:57 51°8.759 2°35.155 128.8 1.7 157 14.8
2004-04-20 09:52:57 51°8.735 2°35.171 125.4 1.5 159 14.2
2004-04-20 09:53:57 51°8.715 2°35.186 118.6 1.3 157 13.6
2004-04-20 09:54:57 51°8.699 2°35.2 112.1 1 152 12.9
2004-04-20 09:55:57 51°8.685 2°35.213 106.2 0.9 149 12.3
2004-04-20 09:56:57 51°8.673 2°35.224 103.4 0.8 148 11.8
2004-04-20 09:57:57 51°8.661 2°35.236 101.2 0.7 143 11.4
2004-04-20 09:58:57 51°8.651 2°35.246 98.5 0.7 149 11
2004-04-20 09:59:57 51°8.641 2°35.255 95.8 0.6 146 10.7
2004-04-20 10:00:57 51°8.633 2°35.264 92.3 0.6 146 10.4
2004-04-20 10:01:57 51°8.625 2°35.273 89.2 0.6 145 10.2
2004-04-20 10:02:57 51°8.618 2°35.282 86.3 0.5 142 10
2004-04-20 10:03:57 51°8.61 2°35.291 83.4 0.5 141 9.8
2004-04-20 10:04:57 51°8.605 2°35.299 80 0.4 134 9.7
2004-04-20 10:05:57 51°8.621 2°35.356 55.6 5.6 52 9.7
2004-04-20 10:06:57 51°8.706 2°35.504 58.1 8.7 56 10.5
2004-04-20 10:07:57 51°8.774 2°35.734 69.2 10 65 10.5
2004-04-20 10:08:57 51°8.843 2°35.979 69.4 10.2 66 10.5
2004-04-20 10:09:57 51°8.911 2°36.229 70.1 10.3 67 10.5
2004-04-20 10:10:57 51°8.979 2°36.48 69.7 10.4 67 10.7
2004-04-20 10:11:57 51°9.034 2°36.74 76.9 10.4 74 10.6
2004-04-20 10:12:57 51°9.086 2°37.002 75.6 10.4 73 10.7
2004-04-20 10:13:57 51°9.139 2°37.267 76 10.5 72 10.7
2004-04-20 10:14:57 51°9.192 2°37.532 75.4 10.5 72 10.8
2004-04-20 10:15:57 51°9.245 2°37.797 75.6 10.5 72 10.9
2004-04-20 10:16:57 51°9.299 2°38.061 75.4 10.5 72 10.9
2004-04-20 10:17:57 51°9.353 2°38.326 75.7 10.5 72 10.9
2004-04-20 10:18:57 51°9.408 2°38.592 75.2 10.5 72 10.8
2004-04-20 10:19:57 51°9.463 2°38.857 75.2 10.5 72 10.6
2004-04-20 10:20:57 51°9.517 2°39.123 75.6 10.6 72 10.5
2004-04-20 10:21:57 51°9.571 2°39.389 75.4 10.6 72 10.5
2004-04-20 10:22:57 51°9.627 2°39.655 75.2 10.6 72 10.4
2004-04-20 10:23:57 51°9.682 2°39.921 75.4 10.6 72 10.2
2004-04-20 10:24:57 51°9.737 2°40.188 75.3 10.6 72 10
2004-04-20 10:25:57 51°9.792 2°40.454 75.2 10.6 72 10
2004-04-20 10:26:57 51°9.846 2°40.721 75.7 10.6 72 9.9
2004-04-20 10:27:57 51°9.901 2°40.988 75.5 10.6 72 9.8
2004-04-20 10:28:57 51°9.957 2°41.256 75 10.6 71 9.7
2004-04-20 10:29:57 51°10.012 2°41.525 74.8 10.6 71 9.6
2004-04-20 10:30:57 51°10.078 2°41.838 75.1 13.5 72 9.3
2004-04-20 10:31:57 51°10.151 2°42.181 75.7 13.8 72 9.3
2004-04-20 10:32:57 51°10.224 2°42.528 75.6 13.8 71 9.3
2004-04-20 10:33:57 51°10.298 2°42.876 75.1 14 71 9.4
2004-04-20 10:34:57 51°10.373 2°43.226 75.8 14 71 9.5
2004-04-20 10:35:57 51°10.447 2°43.577 75.4 14 71 9.5
2004-04-20 10:36:57 51°10.524 2°43.928 76 14 71 9.5
2004-04-20 10:37:57 51°10.6 2°44.281 75.5 14 71 9.4
2004-04-20 10:38:57 51°10.678 2°44.633 75.6 14.2 71 9.4
2004-04-20 10:39:57 51°10.756 2°44.986 75 14.1 71 9.1
2004-04-20 10:40:57 51°10.834 2°45.337 74.6 14.1 69 8.8
2004-04-20 10:41:57 51°10.913 2°45.692 75.3 14.2 70 9.1
2004-04-20 10:42:57 51°10.992 2°46.047 76.5 14.2 71 9
2004-04-20 10:43:57 51°11.071 2°46.402 77.2 14.2 72 9.1
2004-04-20 10:44:57 51°11.152 2°46.756 75.2 14.3 71 9.1
2004-04-20 10:45:57 51°11.244 2°47.105 68.7 14.3 64 9.4
2004-04-20 10:46:57 51°11.314 2°47.335 58.4 6.5 54 9.9
2004-04-20 10:47:57 51°11.375 2°47.426 36.2 3.5 38 9.8
2004-04-20 10:48:57 51°11.399 2°47.47 60.7 1.9 54 9.9
2004-04-20 10:49:57 51°11.415 2°47.511 73 1.8 60 10
2004-04-20 10:50:57 51°11.428 2°47.557 83.4 2.3 68 10.1
2004-04-20 10:51:57 51°11.449 2°47.614 60.5 2.7 56 10
2004-04-20 10:52:57 51°11.477 2°47.677 59.2 3.1 55 10.2
2004-04-20 10:53:57 51°11.505 2°47.747 62.4 3.3 58 10.2
2004-04-20 10:54:57 51°11.533 2°47.821 70.6 3.2 63 10.3
2004-04-20 10:55:57 51°11.554 2°47.898 77 3.1 68 10.4
2004-04-20 10:56:57 51°11.574 2°47.975 76.7 3.2 67 10.5
2004-04-20 10:57:57 51°11.597 2°48.054 71.9 3.3 63 10.5
2004-04-20 10:58:57 51°11.624 2°48.133 66.9 3.4 59 10.6
2004-04-20 10:59:57 51°11.653 2°48.213 66.7 3.5 60 10.6
2004-04-20 11:00:57 51°11.681 2°48.294 71.5 3.5 63 10.6
2004-04-20 11:01:57 51°11.707 2°48.377 73.4 3.5 64 10.7
2004-04-20 11:02:57 51°11.734 2°48.461 71.4 3.6 63 10.7
2004-04-20 11:03:57 51°11.762 2°48.545 67.5 3.6 60 10.8
2004-04-20 11:04:57 51°11.794 2°48.625 61.3 3.5 56 10.8
2004-04-20 11:05:57 51°11.826 2°48.699 58.2 3.3 55 10.8
2004-04-20 11:06:57 51°11.859 2°48.769 57.8 3.3 54 10.9
2004-04-20 11:07:57 51°11.891 2°48.842 59.5 3.4 54 10.9
2004-04-20 11:08:57 51°11.922 2°48.917 64.4 3.4 58 11
2004-04-20 11:09:57 51°11.954 2°48.993 65.2 3.4 57 11
2004-04-20 11:10:57 51°11.985 2°49.07 62.7 3.4 56 11.1
2004-04-20 11:11:57 51°12.018 2°49.144 58.2 3.4 54 11.1
2004-04-20 11:12:57 51°12.052 2°49.217 53.6 3.5 52 11.2
2004-04-20 11:13:57 51°12.087 2°49.289 51.5 3.5 50 11.2
2004-04-20 11:14:57 51°12.124 2°49.362 55.6 3.6 53 11.3
2004-04-20 11:15:57 51°12.157 2°49.439 62.4 3.5 57 11.2
2004-04-20 11:16:57 51°12.187 2°49.515 65.7 3.4 57 11.3
2004-04-20 11:17:57 51°12.217 2°49.593 67.1 3.4 58 11.4
2004-04-20 11:18:57 51°12.247 2°49.67 66.4 3.4 58 11.4
2004-04-20 11:19:57 51°12.277 2°49.748 66.2 3.4 59 11.5
2004-04-20 11:20:57 51°12.309 2°49.825 61.5 3.5 55 11.5
2004-04-20 11:21:57 51°12.342 2°49.9 59.2 3.5 55 11.5
2004-04-20 11:22:57 51°12.375 2°49.977 58.4 3.5 55 11.6
2004-04-20 11:23:57 51°12.408 2°50.054 58.7 3.6 55 11.6
2004-04-20 11:24:57 51°12.442 2°50.132 59.7 3.6 55 11.7
2004-04-20 11:25:57 51°12.475 2°50.208 58.6 3.5 54 11.7
2004-04-20 11:26:57 51°12.508 2°50.285 59.7 3.5 55 11.8
2004-04-20 11:27:57 51°12.542 2°50.364 60.7 3.5 56 11.8
2004-04-20 11:28:57 51°12.574 2°50.442 62.8 3.5 58 11.9
2004-04-20 11:29:57 51°12.606 2°50.52 59.6 3.5 55 11.9
2004-04-20 11:30:57 51°12.642 2°50.597 53.2 4.2 51 11.9
2004-04-20 11:31:57 51°12.687 2°50.677 44.9 3.8 46 12
2004-04-20 11:32:57 51°12.73 2°50.744 35.1 3.4 42 12.1
2004-04-20 11:33:57 51°12.825 2°50.784 343.8 7.5 348 12.1
2004-04-20 11:34:57 51°12.875 2°50.648 258.5 6.3 256 12.6
2004-04-20 11:35:57 51°12.807 2°50.498 230.4 7.5 224 12.5
2004-04-20 11:36:57 51°12.713 2°50.358 228.6 7.1 224 12.3
2004-04-20 11:37:57 51°12.653 2°50.282 219.2 3.2 204 12.2
2004-04-20 11:38:57 51°12.612 2°50.28 197.4 2.2 160 12.1
2004-04-20 11:39:57 51°12.578 2°50.276 239.1 2.5 243 12.1
2004-04-20 11:40:57 51°12.618 2°50.216 331.3 4.5 351 12.3
2004-04-20 11:41:57 51°12.662 2°50.239 14.7 2.1 42 12.4
2004-04-20 11:42:57 51°12.688 2°50.281 31.5 2.3 48 12.5
2004-04-20 11:43:57 51°12.713 2°50.328 36.2 2.3 47 12.6
2004-04-20 11:44:57 51°12.738 2°50.376 36.7 2.4 51 12.6
2004-04-20 11:45:57 51°12.765 2°50.427 35.8 2.5 49 12.7
2004-04-20 11:46:57 51°12.792 2°50.477 35.5 2.5 50 12.8
2004-04-20 11:47:57 51°12.819 2°50.528 35.9 2.6 49 12.8
2004-04-20 11:48:57 51°12.849 2°50.58 41.1 3 48 12.9
2004-04-20 11:49:57 51°12.928 2°50.712 49.7 10.8 47 13.1
2004-04-20 11:50:57 51°13.08 2°51.008 61.1 15.7 56 13
2004-04-20 11:51:57 51°13.229 2°51.357 60.9 15.9 56 12.9
2004-04-20 11:52:57 51°13.378 2°51.705 60.7 16 56 13.1
2004-04-20 11:53:57 51°13.53 2°52.053 60.2 16 55 13.1
2004-04-20 11:54:57 51°13.682 2°52.401 60.9 16 55 13.1
2004-04-20 11:55:57 51°13.835 2°52.749 60.3 15.9 55 13
2004-04-20 11:56:57 51°13.962 2°53.116 71.8 15.8 64 12.7
2004-04-20 11:57:57 51°14.123 2°53.445 49.3 15.7 45 12.5
2004-04-20 11:58:57 51°14.302 2°53.751 55.5 15.8 50 12.6
2004-04-20 11:59:57 51°14.472 2°54.068 58.3 15.7 56 12.6
2004-04-20 12:00:57 51°14.505 2°54.455 111.6 14.8 105 13.6
2004-04-20 12:01:57 51°14.427 2°54.826 121.2 14.2 111 13.5
2004-04-20 12:02:57 51°14.33 2°55.13 136.7 11.3 133 13.9
2004-04-20 12:03:57 51°14.225 2°55.325 138.4 8.1 135 13.9
2004-04-20 12:04:57 51°14.119 2°55.442 159.5 7.6 155 13.8
2004-04-20 12:05:57 51°13.998 2°55.523 161.8 8.2 157 13.3
2004-04-20 12:06:57 51°13.87 2°55.611 159.6 8.3 155 12.6